createdAt,value
2022-08-21T00:00:27.093Z,1.92
2022-08-21T00:05:21.843Z,2.05
2022-08-21T00:10:15.932Z,2.10
2022-08-21T00:15:12.332Z,1.80
2022-08-21T00:20:11.470Z,2.00
2022-08-21T00:25:09.052Z,2.10
2022-08-21T00:30:02.617Z,2.30
2022-08-21T00:34:57.159Z,2.63
2022-08-21T00:39:51.343Z,2.72
2022-08-21T00:44:49.287Z,2.17
2022-08-21T00:49:44.064Z,2.28
2022-08-21T00:54:38.820Z,2.75
2022-08-21T00:59:39.086Z,2.90
2022-08-21T01:04:33.011Z,2.92
2022-08-21T01:09:27.118Z,2.80
2022-08-21T01:14:21.424Z,3.22
2022-08-21T01:19:16.022Z,3.00
2022-08-21T01:24:10.753Z,3.58
2022-08-21T01:29:17.781Z,3.42
2022-08-21T01:34:12.121Z,2.70
2022-08-21T01:39:07.413Z,3.58
2022-08-21T01:44:01.370Z,3.10
2022-08-21T01:48:55.444Z,3.40
2022-08-21T01:53:49.850Z,3.08
2022-08-21T01:58:49.406Z,3.42
2022-08-21T02:03:44.088Z,3.03
2022-08-21T02:08:38.519Z,3.10
2022-08-21T02:13:32.507Z,2.75
2022-08-21T02:18:26.293Z,3.05
2022-08-21T02:23:19.997Z,2.70
2022-08-21T02:28:20.055Z,2.55
2022-08-21T02:33:14.807Z,2.45
2022-08-21T02:38:13.047Z,2.80
2022-08-21T02:43:08.250Z,2.15
2022-08-21T02:48:05.754Z,2.38
2022-08-21T02:52:59.953Z,2.50
2022-08-21T02:57:54.460Z,2.85
2022-08-21T03:02:49.223Z,3.47
2022-08-21T03:07:43.826Z,2.70
2022-08-21T03:12:37.375Z,2.63
2022-08-21T03:17:31.284Z,3.05
2022-08-21T03:22:24.659Z,2.55
2022-08-21T03:27:21.497Z,2.22
2022-08-21T03:32:16.991Z,2.30
2022-08-21T03:37:12.318Z,2.00
2022-08-21T03:42:06.967Z,1.95
2022-08-21T03:47:01.172Z,1.95
2022-08-21T03:51:59.738Z,2.10
2022-08-21T03:56:53.915Z,2.00
2022-08-21T04:01:58.175Z,2.15
2022-08-21T04:06:52.674Z,1.95
2022-08-21T04:11:47.160Z,2.47
2022-08-21T04:16:41.114Z,2.08
2022-08-21T04:21:35.033Z,2.63
2022-08-21T04:26:29.400Z,2.60
2022-08-21T04:31:24.407Z,3.45
2022-08-21T04:36:18.164Z,3.15
2022-08-21T04:41:17.074Z,3.50
2022-08-21T04:46:18.839Z,3.25
2022-08-21T04:51:18.456Z,3.83
2022-08-21T04:56:32.893Z,4.20
2022-08-21T05:01:29.169Z,3.92
2022-08-21T05:06:23.196Z,4.10
2022-08-21T05:11:16.585Z,4.65
2022-08-21T05:16:11.093Z,5.50
2022-08-21T05:21:06.131Z,5.30
2022-08-21T05:26:00.437Z,5.43
2022-08-21T05:30:54.650Z,4.78
2022-08-21T05:35:54.907Z,4.10
2022-08-21T05:40:48.492Z,4.38
2022-08-21T05:45:44.361Z,5.10
2022-08-21T05:50:39.416Z,3.70
2022-08-21T05:55:33.941Z,3.42
2022-08-21T06:00:28.175Z,3.15
2022-08-21T06:05:36.860Z,3.03
2022-08-21T06:10:31.661Z,2.60
2022-08-21T06:15:25.635Z,2.20
2022-08-21T06:20:20.196Z,2.65
2022-08-21T06:25:14.031Z,3.30
2022-08-21T06:30:08.373Z,2.70
2022-08-21T06:35:02.963Z,2.42
2022-08-21T06:39:56.931Z,1.98
2022-08-21T06:44:52.371Z,1.88
2022-08-21T06:49:45.395Z,1.40
2022-08-21T06:54:39.844Z,1.60
2022-08-21T06:59:33.813Z,1.55
2022-08-21T07:04:27.658Z,1.42
2022-08-21T07:09:24.532Z,1.60
2022-08-21T07:14:20.225Z,1.50
2022-08-21T07:19:14.204Z,1.80
2022-08-21T07:24:08.474Z,1.50
2022-08-21T07:29:02.647Z,1.60
2022-08-21T07:34:00.057Z,1.67
2022-08-21T07:38:54.326Z,1.73
2022-08-21T07:43:48.657Z,1.65
2022-08-21T07:48:46.618Z,1.50
2022-08-21T07:53:40.725Z,1.30
2022-08-21T07:58:34.963Z,1.40
2022-08-21T08:03:29.446Z,1.60
2022-08-21T08:08:25.498Z,1.30
2022-08-21T08:13:19.884Z,1.70
2022-08-21T08:18:15.093Z,1.75
2022-08-21T08:23:14.612Z,1.60
2022-08-21T08:28:16.753Z,1.45
2022-08-21T08:33:11.929Z,2.05
2022-08-21T08:38:06.635Z,2.40
2022-08-21T08:43:01.102Z,2.40
2022-08-21T08:48:03.251Z,2.47
2022-08-21T08:53:06.170Z,2.00
2022-08-21T08:57:59.419Z,2.70
2022-08-21T09:02:56.297Z,2.80
2022-08-21T09:08:19.170Z,2.97
2022-08-21T09:13:26.215Z,3.53
2022-08-21T09:18:34.163Z,3.03
2022-08-21T09:23:37.605Z,3.47
2022-08-21T09:28:35.608Z,3.13
2022-08-21T09:33:29.173Z,4.10
2022-08-21T09:38:35.698Z,3.40
2022-08-21T09:43:29.241Z,5.22
2022-08-21T09:48:32.592Z,5.45
2022-08-21T09:53:33.689Z,4.47
2022-08-21T09:58:35.989Z,4.20
2022-08-21T10:03:29.003Z,4.25
2022-08-21T10:08:25.265Z,4.00
2022-08-21T10:13:44.622Z,3.75
2022-08-21T10:18:44.055Z,3.05
2022-08-21T10:24:08.951Z,3.20
2022-08-21T10:29:26.898Z,4.03
2022-08-21T10:34:42.488Z,3.63
2022-08-21T10:40:06.479Z,2.92
2022-08-21T10:45:21.952Z,3.10
2022-08-21T10:50:21.367Z,2.60
2022-08-21T10:55:23.307Z,2.47
2022-08-21T11:00:42.663Z,2.80
2022-08-21T11:05:42.286Z,3.67
2022-08-21T11:10:57.762Z,2.75
2022-08-21T11:15:54.005Z,2.33
2022-08-21T11:21:18.175Z,1.70
2022-08-21T11:26:19.928Z,1.88
2022-08-21T11:31:48.656Z,2.65
2022-08-21T11:36:56.186Z,2.30
2022-08-21T11:42:13.297Z,2.35
2022-08-21T11:47:41.293Z,2.30
2022-08-21T11:52:49.710Z,3.10
2022-08-21T11:57:57.025Z,2.80
2022-08-21T12:02:58.029Z,2.40
2022-08-21T12:08:09.180Z,2.42
2022-08-21T12:13:40.638Z,2.73
2022-08-21T12:18:36.054Z,2.42
2022-08-21T12:24:06.494Z,2.40
2022-08-21T12:29:27.870Z,2.03
2022-08-21T12:34:22.129Z,2.05
2022-08-21T12:39:24.542Z,2.13
2022-08-21T12:44:25.010Z,2.00
2022-08-21T12:49:30.075Z,2.58
2022-08-21T12:54:48.920Z,2.55
2022-08-21T12:59:42.630Z,2.20
2022-08-21T13:04:40.669Z,1.90
2022-08-21T13:09:34.776Z,1.63
2022-08-21T13:14:35.716Z,1.80
2022-08-21T13:19:40.020Z,1.92
2022-08-21T13:24:44.411Z,1.83
2022-08-21T13:29:38.615Z,2.20
2022-08-21T13:34:37.205Z,1.70
2022-08-21T13:39:30.271Z,1.92
2022-08-21T13:44:43.153Z,1.95
2022-08-21T13:49:59.233Z,1.70
2022-08-21T13:55:03.257Z,1.67
2022-08-21T14:00:16.407Z,1.40
2022-08-21T14:05:18.165Z,1.88
2022-08-21T14:10:16.215Z,1.98
2022-08-21T14:15:14.036Z,1.50
2022-08-21T14:20:28.453Z,1.58
2022-08-21T14:25:21.235Z,1.60
2022-08-21T14:30:24.609Z,1.73
2022-08-21T14:35:21.053Z,1.63
2022-08-21T14:40:18.973Z,1.77
2022-08-21T14:45:24.908Z,1.60
2022-08-21T14:50:21.562Z,1.50
2022-08-21T14:55:15.605Z,1.65
2022-08-21T15:00:12.310Z,1.45
2022-08-21T15:05:08.761Z,1.40
2022-08-21T15:10:01.972Z,1.50
2022-08-21T15:14:58.079Z,1.40
2022-08-21T15:19:50.842Z,1.30
2022-08-21T15:24:44.925Z,1.20
2022-08-21T15:29:38.873Z,1.52
2022-08-21T15:34:32.595Z,1.20
2022-08-21T15:39:30.009Z,1.30
2022-08-21T15:44:31.226Z,1.30
2022-08-21T15:49:25.023Z,1.85
2022-08-21T15:54:18.832Z,1.40
2022-08-21T15:59:17.623Z,1.17
2022-08-21T16:04:10.939Z,1.45
2022-08-21T16:09:04.442Z,1.52
2022-08-21T16:14:05.429Z,1.17
2022-08-21T16:18:59.189Z,1.17
2022-08-21T16:23:52.350Z,1.00
2022-08-21T16:28:47.315Z,1.20
2022-08-21T16:33:46.040Z,1.10
2022-08-21T16:38:42.625Z,1.05
2022-08-21T16:43:36.213Z,1.13
2022-08-21T16:48:33.144Z,1.17
2022-08-21T16:53:27.093Z,1.10
2022-08-21T16:58:32.855Z,1.45
2022-08-21T17:03:32.435Z,1.50
2022-08-21T17:08:27.065Z,1.40
2022-08-21T17:13:20.191Z,1.20
2022-08-21T17:18:19.419Z,1.40
2022-08-21T17:23:13.207Z,1.58
2022-08-21T17:28:06.987Z,1.42
2022-08-21T17:33:01.247Z,1.10
2022-08-21T17:37:55.799Z,1.83
2022-08-21T17:42:50.773Z,1.77
2022-08-21T17:47:44.545Z,1.98
2022-08-21T17:52:37.788Z,2.35
2022-08-21T17:57:35.568Z,2.00
2022-08-21T18:02:30.866Z,1.90
2022-08-21T18:07:31.847Z,2.00
2022-08-21T18:12:26.931Z,2.53
2022-08-21T18:17:23.484Z,3.00
2022-08-21T18:22:17.829Z,2.42
2022-08-21T18:27:13.690Z,4.40
2022-08-21T18:32:07.895Z,3.42
2022-08-21T18:37:21.531Z,5.03
2022-08-21T18:42:17.618Z,3.85
2022-08-21T18:47:26.035Z,3.15
2022-08-21T18:57:31.958Z,2.40
2022-08-21T19:02:26.357Z,2.30
2022-08-21T19:07:21.244Z,1.67
2022-08-21T19:12:19.956Z,2.22
2022-08-21T19:17:14.745Z,1.92
2022-08-21T19:22:11.181Z,1.85
2022-08-21T19:27:05.023Z,2.38
2022-08-21T19:31:58.106Z,2.17
2022-08-21T19:36:53.209Z,3.20
2022-08-21T19:41:51.817Z,2.97
2022-08-21T19:46:45.972Z,3.38
2022-08-21T19:51:43.549Z,2.95
2022-08-21T19:56:37.715Z,3.03
2022-08-21T20:01:31.470Z,3.28
2022-08-21T20:06:26.621Z,3.10
2022-08-21T20:11:35.005Z,2.95
2022-08-21T20:16:29.236Z,2.63
2022-08-21T20:21:22.159Z,2.50
2022-08-21T20:26:17.527Z,2.85
2022-08-21T20:31:14.535Z,2.72
2022-08-21T20:36:08.765Z,2.53
2022-08-21T20:41:01.816Z,2.33
2022-08-21T20:45:55.155Z,2.50
2022-08-21T20:50:49.875Z,2.83
2022-08-21T20:55:49.984Z,2.55
2022-08-21T21:00:44.376Z,2.47
2022-08-21T21:05:47.221Z,2.22
2022-08-21T21:11:07.319Z,2.42
2022-08-21T21:16:04.471Z,2.15
2022-08-21T21:21:21.711Z,2.80
2022-08-21T21:26:52.114Z,2.88
2022-08-21T21:31:46.772Z,3.10
2022-08-21T21:36:56.170Z,2.92
2022-08-21T21:41:57.208Z,2.92
2022-08-21T21:47:01.207Z,3.28
2022-08-21T21:52:28.665Z,2.90
2022-08-21T21:57:49.365Z,3.13
2022-08-21T22:02:45.656Z,2.72
2022-08-21T22:07:43.947Z,2.33
2022-08-21T22:13:10.099Z,3.25
2022-08-21T22:18:09.374Z,2.80
2022-08-21T22:23:05.016Z,2.65
2022-08-21T22:28:22.341Z,2.20
2022-08-21T22:33:28.622Z,1.90
2022-08-21T22:38:27.343Z,1.95
2022-08-21T22:43:24.983Z,1.73
2022-08-21T22:48:22.522Z,2.40
2022-08-21T22:53:25.876Z,2.50
2022-08-21T22:58:34.693Z,2.80
2022-08-21T23:03:45.813Z,2.80
2022-08-21T23:13:54.715Z,3.03
2022-08-21T23:19:00.501Z,3.00
2022-08-21T23:24:19.282Z,2.53
2022-08-21T23:29:39.124Z,2.60
2022-08-21T23:34:50.291Z,2.88
2022-08-21T23:40:29.718Z,2.63
2022-08-21T23:45:34.738Z,2.20
2022-08-21T23:50:54.165Z,2.17
2022-08-21T23:56:26.102Z,2.50
